ADDS METAR Data INFO
IDs: Format: Raw Decoded Include TAF

Data at: 0634 UTC 15 Dec 2017

KRTN 150553Z AUTO 35004KT 10SM CLR M08/M09 A3026 RMK AO2 SLP271 T10831094 11006 21089 51006
KRTN 150453Z AUTO 07005KT 10SM CLR M06/M08 A3026 RMK AO2 SLP271 T10611083
KRTN 150353Z AUTO 08005KT 10SM CLR M05/M08 A3026 RMK AO2 SLP269 T10501078
KRTN 150253Z AUTO 05006KT 10SM OVC043 M01/M07 A3024 RMK AO2 SLP254 T10111072 51015 $
KRTN 150153Z AUTO 03007KT 10SM BKN041 OVC065 M01/M08 A3023 RMK AO2 SLP249 T10061078 $
KRTN 150053Z AUTO 05009KT 10SM OVC041 M01/M08 A3021 RMK AO2 SLP241 T10111078
KRTN 142353Z AUTO 07005KT 10SM OVC047 M01/M08 A3019 RMK AO2 SLP226 60000 T10061078 10039 21006 53013
KRTN 142253Z AUTO 07006KT 10SM SCT042 BKN050 00/M07 A3016 RMK AO2 SLP213 T00001072
KRTN 142153Z AUTO 05012KT 10SM OVC041 02/M07 A3015 RMK AO2 SLP207 T00171067
KRTN 142053Z AUTO 05010KT 10SM OVC039 02/M07 A3015 RMK AO2 SLP210 60000 T00171067 56016
KRTN 141953Z AUTO 03006KT 10SM SCT042 BKN050 03/M07 A3015 RMK AO2 SNE05 SLP205 P0000 T00331072
KRTN 141900Z AUTO 36006KT 3SM -SN BKN030 BKN038 00/M03 A3018 RMK AO2 P0000 T00001033
KRTN 141853Z AUTO 01007KT 1SM -SN OVC032 M01/M04 A3018 RMK AO2 SNB42 SLP223 P0000 T10061039
KRTN 141846Z AUTO 01010KT 1 3/4SM -SN BKN034 BKN060 OVC075 00/M06 A3018 RMK AO2 SNB42 P0000 T00001056
KRTN 141753Z AUTO 01008KT 10SM FEW049 SCT060 BKN100 02/M08 A3020 RMK AO2 SLP228 T00221078 10033 21022 50007
KRTN 141653Z AUTO 36010KT 10SM OVC060 01/M07 A3022 RMK AO2 SLP242 T00061072
KRTN 141553Z AUTO 36008KT 10SM OVC060 M01/M08 A3020 RMK AO2 SLP229 T10061078
KRTN 141453Z AUTO 01006KT 10SM BKN060 M02/M09 A3018 RMK AO2 SLP224 T10171089 51028
KRTN 141353Z AUTO 01009KT 10SM SCT100 M02/M09 A3015 RMK AO2 SLP216 T10171089
KRTN 141253Z AUTO 03012KT 10SM OVC100 00/M11 A3011 RMK AO2 SLP193 T00001111
KRTN 141153Z AUTO 02010KT 10SM FEW060 SCT110 01/M11 A3008 RMK AO2 SLP172 T00111111 10017 21017 51002
KRTN 141053Z AUTO 36008KT 10SM SCT065 OVC095 02/M12 A3006 RMK AO2 SLP153 T00171117
KRTN 140953Z AUTO 36013KT 10SM BKN095 OVC110 02/M12 A3009 RMK AO2 SLP155 T00171117
KRTN 140853Z AUTO 01006KT 10SM FEW100 M01/M13 A3007 RMK AO2 SLP152 T10061128 51013
KRTN 140753Z AUTO 02006KT 10SM OVC100 00/M12 A3006 RMK AO2 SLP150 T00001122
KRTN 140653Z AUTO 36005KT 10SM OVC090 02/M13 A3007 RMK AO2 SLP149 T00171128 401391078
KRTN 140553Z AUTO 01003KT 10SM OVC110 00/M13 A3003 RMK AO2 SLP139 T00001133 10056 21028 55004
KRTN 140453Z AUTO 07003KT 10SM CLR M02/M14 A3002 RMK AO2 SLP148 T10221144
KRTN 140353Z AUTO 25003KT 10SM CLR 02/M14 A3003 RMK AO2 SLP147 T00171144
KRTN 140253Z AUTO 25005KT 10SM CLR 01/M15 A3004 RMK AO2 SLP181 T00111150 50005
KRTN 140153Z AUTO 28006KT 10SM BKN100 02/M15 A3004 RMK AO2 SLP188 T00171150
KRTN 140053Z AUTO 28003KT 10SM CLR 03/M15 A3003 RMK AO2 SLP182 T00331150
KRTN 132353Z AUTO 18008KT 10SM CLR 06/M15 A3002 RMK AO2 SLP172 T00561150 10139 20056 55004
KRTN 132253Z AUTO 10006KT 10SM CLR 11/M15 A3001 RMK AO2 SLP155 T01061150
KRTN 132153Z AUTO 11008KT 10SM CLR 12/M16 A3002 RMK AO2 SLP146 T01221156
KRTN 132053Z AUTO 12008KT 10SM CLR 13/M16 A3004 RMK AO2 SLP154 T01331156 56029
KRTN 131953Z AUTO 06008KT 10SM CLR 13/M16 A3006 RMK AO2 SLP159 T01331156
KRTN 131853Z AUTO 06011KT 10SM CLR 13/M16 A3010 RMK AO2 SLP177 T01281156